SAS1415 LGSA-LGAV
Flight info
| Callsign | SAS1415 |
|---|---|
| Flight time | N/A |
| Altitude | 30000 |
| Route | SOKRI UB1 VELOP |
| Aircraft | A20N/M-SDE2E3FGHIRWXY/LB1 |
Departure
| Time | N/A |
|---|---|
| Airport | Chania International Airport (LGSA) |
Arrival
| Time | 2026-05-03 20:16 |
|---|---|
| Airport | Athens Eleftherios Venizelos International Airport (LGAV) |
| Time | Latitude | Longitude | Altitude | Speed | Heading |
|---|---|---|---|---|---|
| 2026-05-03 20:15 | 37.90117 | 23.92204 | 927 ft | 137 kts | 31° |
| 2026-05-03 20:15 | 37.90888 | 23.92938 | 732 ft | 140 kts | 33° |
| 2026-05-03 20:15 | 37.91675 | 23.93689 | 540 ft | 142 kts | 33° |
| 2026-05-03 20:15 | 37.92467 | 23.94446 | 377 ft | 142 kts | 30° |
| 2026-05-03 20:16 | 37.93241 | 23.95174 | 300 ft | 131 kts | 30° |
| 2026-05-03 20:16 | 37.93846 | 23.95748 | 282 ft | 83 kts | 38° |
| 2026-05-03 20:16 | 37.94176 | 23.96056 | 287 ft | 48 kts | 38° |
| 2026-05-03 20:16 | 37.94443 | 23.96280 | 292 ft | 44 kts | 19° |
| 2026-05-03 20:17 | 37.94624 | 23.96324 | 301 ft | 0 kts | 356° |
| 2026-05-03 20:18 | 37.94639 | 23.96312 | 302 ft | 6 kts | 316° |
| 2026-05-03 20:18 | 37.94654 | 23.96271 | 301 ft | 4 kts | 279° |
| 2026-05-03 20:18 | 37.94650 | 23.96238 | 305 ft | 4 kts | 247° |
| 2026-05-03 20:18 | 37.94635 | 23.96214 | 306 ft | 4 kts | 224° |
| 2026-05-03 20:19 | 37.94591 | 23.96175 | 304 ft | 11 kts | 215° |
| 2026-05-03 20:19 | 37.94509 | 23.96100 | 303 ft | 18 kts | 216° |
| 2026-05-03 20:19 | 37.94396 | 23.95991 | 303 ft | 23 kts | 218° |
| 2026-05-03 20:19 | 37.94257 | 23.95857 | 304 ft | 27 kts | 217° |
| 2026-05-03 20:20 | 37.94094 | 23.95702 | 301 ft | 30 kts | 217° |
| 2026-05-03 20:20 | 37.93924 | 23.95541 | 299 ft | 31 kts | 217° |
| 2026-05-03 20:20 | 37.93750 | 23.95376 | 300 ft | 31 kts | 217° |
| 2026-05-03 20:20 | 37.93575 | 23.95210 | 304 ft | 32 kts | 216° |
| 2026-05-03 20:21 | 37.93411 | 23.95052 | 306 ft | 21 kts | 221° |
| 2026-05-03 20:21 | 37.93424 | 23.94908 | 305 ft | 13 kts | 303° |
| 2026-05-03 20:21 | 37.93428 | 23.94900 | 306 ft | 0 kts | 303° |
| 2026-05-03 20:21 | 37.93430 | 23.94895 | 305 ft | 1 kts | 303° |
| 2026-05-03 20:22 | 37.93432 | 23.94892 | 305 ft | 0 kts | 303° |
| 2026-05-03 20:22 | 37.93436 | 23.94884 | 307 ft | 2 kts | 303° |
| 2026-05-03 20:22 | 37.93469 | 23.94844 | 304 ft | 16 kts | 333° |
| 2026-05-03 20:22 | 37.93529 | 23.94893 | 306 ft | 19 kts | 37° |
| 2026-05-03 20:23 | 37.93540 | 23.94904 | 307 ft | 0 kts | 37° |
| 2026-05-03 20:23 | 37.93541 | 23.94905 | 307 ft | 0 kts | 37° |
| 2026-05-03 20:23 | 37.93542 | 23.94906 | 307 ft | 0 kts | 37° |
| 2026-05-03 20:24 | 37.93547 | 23.94903 | 305 ft | 2 kts | 336° |
| 2026-05-03 20:24 | 37.93564 | 23.94896 | 307 ft | 5 kts | 343° |
| 2026-05-03 20:24 | 37.93590 | 23.94865 | 304 ft | 5 kts | 307° |
| 2026-05-03 20:24 | 37.93606 | 23.94840 | 304 ft | 0 kts | 307° |